createdAt,value
2017-03-08T04:01:06.763Z,1018.71
2017-03-08T04:01:32.328Z,1018.69
2017-03-08T04:01:57.888Z,1018.61
2017-03-08T04:02:23.588Z,1018.63
2017-03-08T04:02:49.140Z,1018.63
2017-03-08T04:03:14.721Z,1018.64
2017-03-08T04:03:40.292Z,1018.62
2017-03-08T04:04:05.868Z,1018.62
2017-03-08T04:04:31.433Z,1018.64
2017-03-08T04:04:58.224Z,1018.64
2017-03-08T04:05:23.320Z,1018.65
2017-03-08T04:05:48.972Z,1018.62
2017-03-08T04:06:14.538Z,1018.62
2017-03-08T04:06:40.104Z,1018.64
2017-03-08T04:07:05.658Z,1018.65
2017-03-08T04:07:31.226Z,1018.64
2017-03-08T04:07:57.533Z,1018.63
2017-03-08T04:08:23.809Z,1018.65
2017-03-08T04:08:49.382Z,1018.65
2017-03-08T04:09:14.945Z,1018.62
2017-03-08T04:09:40.509Z,1018.66
2017-03-08T04:10:06.088Z,1018.68
2017-03-08T04:10:31.673Z,1018.65
2017-03-08T04:10:57.234Z,1018.69
2017-03-08T04:11:22.792Z,1018.7
2017-03-08T04:11:48.372Z,1018.68
2017-03-08T04:12:13.918Z,1018.65
2017-03-08T04:12:39.499Z,1018.66
2017-03-08T04:13:05.038Z,1018.7
2017-03-08T04:13:30.591Z,1018.7
2017-03-08T04:13:56.132Z,1018.68
2017-03-08T04:14:21.682Z,1018.65
2017-03-08T04:14:47.221Z,1018.71
2017-03-08T04:15:13.724Z,1018.68
2017-03-08T04:15:39.223Z,1018.69
2017-03-08T04:16:03.882Z,1018.69
2017-03-08T04:16:29.508Z,1018.72
2017-03-08T04:16:55.731Z,1018.74
2017-03-08T04:17:20.682Z,1018.74
2017-03-08T04:17:47.229Z,1018.73
2017-03-08T04:18:12.425Z,1018.78
2017-03-08T04:18:37.984Z,1018.78
2017-03-08T04:19:03.557Z,1018.79
2017-03-08T04:19:29.132Z,1018.75
2017-03-08T04:19:54.702Z,1018.79
2017-03-08T04:20:20.274Z,1018.77
2017-03-08T04:20:45.837Z,1018.78
2017-03-08T04:21:11.400Z,1018.79
2017-03-08T04:21:37.023Z,1018.81
2017-03-08T04:22:03.225Z,1018.79
2017-03-08T04:22:28.178Z,1018.79
2017-03-08T04:22:53.751Z,1018.8
2017-03-08T04:23:19.387Z,1018.83
2017-03-08T04:23:44.958Z,1018.81
2017-03-08T04:24:10.516Z,1018.83
2017-03-08T04:24:36.196Z,1018.82
2017-03-08T04:25:01.780Z,1018.83
2017-03-08T04:25:27.349Z,1018.83
2017-03-08T04:25:52.924Z,1018.8
2017-03-08T04:26:18.488Z,1018.82
2017-03-08T04:26:44.043Z,1018.79
2017-03-08T04:27:09.621Z,1018.81
2017-03-08T04:27:35.224Z,1018.81
2017-03-08T04:28:00.795Z,1018.82
2017-03-08T04:28:26.370Z,1018.8
2017-03-08T04:28:51.942Z,1018.77
2017-03-08T04:29:17.500Z,1018.8
2017-03-08T04:29:43.070Z,1018.8
2017-03-08T04:30:08.639Z,1018.82
2017-03-08T04:30:34.202Z,1018.82
2017-03-08T04:30:59.772Z,1018.78
2017-03-08T04:31:25.338Z,1018.8
2017-03-08T04:31:50.940Z,1018.79
2017-03-08T04:32:16.519Z,1018.76
2017-03-08T04:32:42.138Z,1018.77
2017-03-08T04:33:08.231Z,1018.75
2017-03-08T04:33:33.350Z,1018.78
2017-03-08T04:33:58.911Z,1018.82
2017-03-08T04:34:24.476Z,1018.79
2017-03-08T04:34:50.084Z,1018.83
2017-03-08T04:35:15.663Z,1018.79
2017-03-08T04:35:41.241Z,1018.81
2017-03-08T04:36:06.942Z,1018.8
2017-03-08T04:36:32.550Z,1018.79
2017-03-08T04:36:58.121Z,1018.75
2017-03-08T04:37:23.688Z,1018.76
2017-03-08T04:37:49.262Z,1018.74
2017-03-08T04:38:14.810Z,1018.75
2017-03-08T04:38:40.351Z,1018.79
2017-03-08T04:39:05.897Z,1018.8
2017-03-08T04:39:32.143Z,1018.76
2017-03-08T04:39:57.774Z,1018.8
2017-03-08T04:40:24.241Z,1018.77
2017-03-08T04:40:49.031Z,1018.76
2017-03-08T04:41:14.583Z,1018.75
2017-03-08T04:41:40.251Z,1018.76
2017-03-08T04:42:06.744Z,1018.76
2017-03-08T04:42:31.340Z,1018.75
2017-03-08T04:42:56.904Z,1018.75
2017-03-08T04:43:22.428Z,1018.77
2017-03-08T04:43:47.995Z,1018.74
2017-03-08T04:44:13.558Z,1018.73
2017-03-08T04:44:39.124Z,1018.77
2017-03-08T04:45:04.703Z,1018.75
2017-03-08T04:45:30.287Z,1018.78
2017-03-08T04:45:55.853Z,1018.75
2017-03-08T04:46:21.421Z,1018.77
2017-03-08T04:46:47.591Z,1018.78
2017-03-08T04:47:13.163Z,1018.77
2017-03-08T04:47:38.739Z,1018.81
2017-03-08T04:48:04.299Z,1018.83
2017-03-08T04:48:29.895Z,1018.82
2017-03-08T04:48:55.473Z,1018.85
2017-03-08T04:49:21.029Z,1018.84
2017-03-08T04:49:46.592Z,1018.86
2017-03-08T04:50:12.176Z,1018.86
2017-03-08T04:50:37.743Z,1018.84
2017-03-08T04:51:03.388Z,1018.88
2017-03-08T04:51:28.977Z,1018.86
2017-03-08T04:51:54.680Z,1018.85
2017-03-08T04:52:20.252Z,1018.9
2017-03-08T04:52:45.812Z,1018.87
2017-03-08T04:53:11.493Z,1018.91
2017-03-08T04:53:37.065Z,1018.91
2017-03-08T04:54:02.620Z,1018.95
2017-03-08T04:54:28.181Z,1018.95
2017-03-08T04:54:53.761Z,1018.97
2017-03-08T04:55:19.308Z,1018.96
2017-03-08T04:55:44.872Z,1018.97
2017-03-08T04:56:10.499Z,1018.96
2017-03-08T04:56:36.071Z,1018.97
2017-03-08T04:57:01.633Z,1018.97
2017-03-08T04:57:27.211Z,1018.98
2017-03-08T04:57:52.779Z,1018.98
2017-03-08T04:58:18.342Z,1018.95
2017-03-08T04:58:43.933Z,1018.96
2017-03-08T04:59:09.469Z,1018.99
2017-03-08T04:59:35.031Z,1018.96
2017-03-08T05:00:00.616Z,1018.97
2017-03-08T05:00:26.176Z,1018.95
2017-03-08T05:00:51.747Z,1018.95
2017-03-08T05:01:17.331Z,1018.96
2017-03-08T05:01:42.898Z,1018.96
2017-03-08T05:02:08.455Z,1018.96
2017-03-08T05:02:34.014Z,1018.94
2017-03-08T05:02:59.602Z,1018.9
2017-03-08T05:03:25.194Z,1018.93
2017-03-08T05:03:50.809Z,1018.92
2017-03-08T05:04:16.476Z,1018.88
2017-03-08T05:04:42.040Z,1018.9
2017-03-08T05:05:07.618Z,1018.88
2017-03-08T05:05:33.209Z,1018.86
2017-03-08T05:05:58.810Z,1018.86
2017-03-08T05:06:24.370Z,1018.85
2017-03-08T05:06:49.947Z,1018.86
2017-03-08T05:07:15.494Z,1018.84
2017-03-08T05:07:41.063Z,1018.82
2017-03-08T05:08:06.620Z,1018.83
2017-03-08T05:08:32.230Z,1018.86
2017-03-08T05:08:57.812Z,1018.87
2017-03-08T05:09:23.395Z,1018.86
2017-03-08T05:09:48.960Z,1018.86
2017-03-08T05:10:14.539Z,1018.88
2017-03-08T05:10:40.185Z,1018.84
2017-03-08T05:11:05.747Z,1018.88
2017-03-08T05:11:31.825Z,1018.88
2017-03-08T05:11:57.411Z,1018.87
2017-03-08T05:12:22.961Z,1018.91
2017-03-08T05:12:48.518Z,1018.91
2017-03-08T05:13:14.071Z,1018.93
2017-03-08T05:13:39.629Z,1018.98
2017-03-08T05:14:05.763Z,1019
2017-03-08T05:14:31.336Z,1018.99
2017-03-08T05:14:56.915Z,1019.01
2017-03-08T05:15:22.490Z,1019.02
2017-03-08T05:15:48.060Z,1019.05
2017-03-08T05:16:13.628Z,1019
2017-03-08T05:16:39.179Z,1019.03
2017-03-08T05:17:19.839Z,1019.04
2017-03-08T05:17:46.337Z,1019.06
2017-03-08T05:18:13.775Z,1019.04
2017-03-08T05:18:39.339Z,1019.03
2017-03-08T05:19:04.902Z,1019.07
2017-03-08T05:19:30.480Z,1019.06
2017-03-08T05:19:56.392Z,1019.05
2017-03-08T05:20:21.961Z,1019.05
2017-03-08T05:20:47.537Z,1019.05
2017-03-08T05:21:13.789Z,1019.02
2017-03-08T05:21:39.383Z,1019.05
2017-03-08T05:22:05.569Z,1019.05
2017-03-08T05:22:31.148Z,1019.03
2017-03-08T05:22:56.707Z,1019.02
2017-03-08T05:23:22.922Z,1019.06
2017-03-08T05:23:48.489Z,1019.07
2017-03-08T05:24:14.832Z,1019.02
2017-03-08T05:25:33.716Z,1018.99
2017-03-08T05:27:40.992Z,1018.97
2017-03-08T05:28:07.405Z,1018.97
2017-03-08T05:28:32.983Z,1018.97
2017-03-08T05:28:58.595Z,1018.97
2017-03-08T05:29:24.273Z,1018.97
2017-03-08T05:29:49.839Z,1018.94
2017-03-08T05:30:15.401Z,1018.94
2017-03-08T05:30:40.963Z,1018.93
2017-03-08T05:31:06.517Z,1018.91
2017-03-08T05:31:32.113Z,1018.92
2017-03-08T05:31:57.670Z,1018.92
2017-03-08T05:32:23.249Z,1018.91
2017-03-08T05:32:48.811Z,1018.93
2017-03-08T05:33:14.433Z,1018.87
2017-03-08T05:33:39.974Z,1018.9
2017-03-08T05:34:05.528Z,1018.88
2017-03-08T05:34:31.102Z,1018.84
2017-03-08T05:34:56.678Z,1018.85
2017-03-08T05:35:22.229Z,1018.84
2017-03-08T05:35:47.781Z,1018.87
2017-03-08T05:36:13.317Z,1018.84
2017-03-08T05:36:38.858Z,1018.8
2017-03-08T05:37:04.438Z,1018.8
2017-03-08T05:37:30.002Z,1018.82
2017-03-08T05:37:55.626Z,1018.78
2017-03-08T05:38:21.190Z,1018.8
2017-03-08T05:38:46.770Z,1018.79
2017-03-08T05:39:12.319Z,1018.76
2017-03-08T05:39:37.849Z,1018.76
2017-03-08T05:40:03.455Z,1018.69
2017-03-08T05:40:29.008Z,1018.72
2017-03-08T05:40:54.561Z,1018.74
2017-03-08T05:41:20.114Z,1018.71
2017-03-08T05:41:45.681Z,1018.71
2017-03-08T05:42:11.270Z,1018.69
2017-03-08T05:42:36.829Z,1018.66
2017-03-08T05:43:02.420Z,1018.64
2017-03-08T05:43:27.996Z,1018.62
2017-03-08T05:43:53.570Z,1018.59
2017-03-08T05:44:19.139Z,1018.54
2017-03-08T05:44:45.261Z,1018.55
2017-03-08T05:45:10.830Z,1018.54
2017-03-08T05:45:36.402Z,1018.62
2017-03-08T05:46:02.784Z,1018.54
2017-03-08T05:46:28.359Z,1018.6
2017-03-08T05:46:53.928Z,1018.55
2017-03-08T05:47:19.501Z,1018.59
2017-03-08T05:47:45.074Z,1018.6
2017-03-08T05:48:10.648Z,1018.6
2017-03-08T05:48:36.194Z,1018.63
2017-03-08T05:49:01.739Z,1018.67
2017-03-08T05:49:27.411Z,1018.64
2017-03-08T05:49:52.977Z,1018.66
2017-03-08T05:50:18.542Z,1018.66
2017-03-08T05:50:44.078Z,1018.61
2017-03-08T05:51:09.670Z,1018.66
2017-03-08T05:51:35.279Z,1018.65
2017-03-08T05:52:00.829Z,1018.61
2017-03-08T05:52:26.407Z,1018.6
2017-03-08T05:52:52.030Z,1018.63
2017-03-08T05:53:17.566Z,1018.59
2017-03-08T05:53:43.148Z,1018.55
2017-03-08T05:54:08.668Z,1018.56
2017-03-08T05:54:34.221Z,1018.52
2017-03-08T05:54:59.779Z,1018.55
2017-03-08T05:55:25.340Z,1018.47
2017-03-08T05:55:50.900Z,1018.46
2017-03-08T05:56:16.466Z,1018.44
2017-03-08T05:56:42.034Z,1018.41
2017-03-08T05:57:07.597Z,1018.39
2017-03-08T05:57:33.155Z,1018.4
2017-03-08T05:57:58.728Z,1018.38
2017-03-08T05:58:24.297Z,1018.41
2017-03-08T05:58:49.982Z,1018.36
2017-03-08T05:59:15.559Z,1018.34
2017-03-08T05:59:41.190Z,1018.33
2017-03-08T06:00:06.735Z,1018.33
2017-03-08T06:01:20.450Z,1018.35
2017-03-08T06:01:46.218Z,1018.31
2017-03-08T06:02:11.781Z,1018.33
2017-03-08T06:02:37.323Z,1018.32
2017-03-08T06:03:02.872Z,1018.32
2017-03-08T06:03:28.448Z,1018.33
2017-03-08T06:03:54.022Z,1018.31
2017-03-08T06:04:19.596Z,1018.32
2017-03-08T06:04:45.208Z,1018.26
2017-03-08T06:05:10.768Z,1018.25
2017-03-08T06:05:36.430Z,1018.23
2017-03-08T06:06:02.054Z,1018.22
2017-03-08T06:06:28.429Z,1018.22
2017-03-08T06:06:53.984Z,1018.2
2017-03-08T06:07:19.563Z,1018.26
2017-03-08T06:07:45.173Z,1018.2
2017-03-08T06:08:10.749Z,1018.17
2017-03-08T06:08:36.299Z,1018.18
2017-03-08T06:09:01.846Z,1018.16
2017-03-08T06:09:27.388Z,1018.21
2017-03-08T06:09:52.931Z,1018.2
2017-03-08T06:11:01.542Z,1018.3
2017-03-08T06:11:27.151Z,1018.33
2017-03-08T06:11:52.692Z,1018.33
2017-03-08T06:12:18.264Z,1018.33
2017-03-08T06:12:43.847Z,1018.35
2017-03-08T06:13:09.412Z,1018.32
2017-03-08T06:13:34.981Z,1018.31
2017-03-08T06:14:00.549Z,1018.32
2017-03-08T06:14:26.248Z,1018.29
2017-03-08T06:14:51.812Z,1018.28
2017-03-08T06:15:17.353Z,1018.26
2017-03-08T06:15:42.892Z,1018.24
2017-03-08T06:16:08.427Z,1018.25
2017-03-08T06:16:34.000Z,1018.23
2017-03-08T06:17:00.182Z,1018.22
2017-03-08T06:17:25.130Z,1018.23
2017-03-08T06:17:50.689Z,1018.2
2017-03-08T06:18:16.230Z,1018.21
2017-03-08T06:18:41.799Z,1018.23
2017-03-08T06:19:07.447Z,1018.2
2017-03-08T06:19:33.000Z,1018.26
2017-03-08T06:19:58.588Z,1018.2
2017-03-08T06:20:24.247Z,1018.16
2017-03-08T06:20:49.796Z,1018.19
2017-03-08T06:21:15.351Z,1018.17
2017-03-08T06:21:40.919Z,1018.11
2017-03-08T06:22:06.497Z,1018.07
2017-03-08T06:22:32.056Z,1018.07
2017-03-08T06:22:57.642Z,1018.1
2017-03-08T06:23:23.206Z,1018.05
2017-03-08T06:23:48.782Z,1018.01
2017-03-08T06:24:14.473Z,1018.02
2017-03-08T06:24:40.042Z,1018.01
2017-03-08T06:25:05.607Z,1018.02
2017-03-08T06:25:31.211Z,1018.03
2017-03-08T06:25:56.817Z,1018.03
2017-03-08T06:26:22.399Z,1018.02
2017-03-08T06:26:47.981Z,1017.99
2017-03-08T06:27:13.538Z,1017.99
2017-03-08T06:27:39.106Z,1017.96
2017-03-08T06:28:04.645Z,1017.99
2017-03-08T06:28:30.224Z,1017.96
2017-03-08T06:28:55.788Z,1017.93
2017-03-08T06:29:21.344Z,1017.95
2017-03-08T06:29:46.924Z,1017.94
2017-03-08T06:30:12.465Z,1017.9
2017-03-08T06:30:38.170Z,1017.97
2017-03-08T06:31:03.767Z,1017.95
2017-03-08T06:31:29.377Z,1017.94
2017-03-08T06:31:54.922Z,1017.93
2017-03-08T06:32:20.497Z,1017.94
2017-03-08T06:32:46.077Z,1017.95
2017-03-08T06:33:11.762Z,1017.93
2017-03-08T06:33:37.319Z,1017.94
2017-03-08T06:34:02.940Z,1017.94
2017-03-08T06:34:28.501Z,1017.93
2017-03-08T06:34:54.047Z,1017.93
2017-03-08T06:35:19.608Z,1017.91
2017-03-08T06:35:45.190Z,1017.93
2017-03-08T06:36:10.735Z,1017.9
2017-03-08T06:36:36.701Z,1017.96
2017-03-08T06:37:02.228Z,1017.94
2017-03-08T06:37:27.792Z,1017.94
2017-03-08T06:37:53.349Z,1017.95
2017-03-08T06:38:18.905Z,1017.94
2017-03-08T06:38:44.448Z,1017.98
2017-03-08T06:39:10.031Z,1017.93
2017-03-08T06:39:35.617Z,1017.97
2017-03-08T06:40:01.183Z,1017.98
2017-03-08T06:40:26.729Z,1017.97
2017-03-08T06:40:52.302Z,1018.01
2017-03-08T06:41:17.960Z,1018
2017-03-08T06:41:43.620Z,1017.99
2017-03-08T06:42:09.177Z,1018
2017-03-08T06:42:34.742Z,1018
2017-03-08T06:43:00.319Z,1018.02
2017-03-08T06:43:25.888Z,1018.01
2017-03-08T06:43:51.516Z,1018.03
2017-03-08T06:44:17.081Z,1018.03
2017-03-08T06:44:43.529Z,1018
2017-03-08T06:45:09.091Z,1017.98
2017-03-08T06:45:34.650Z,1018.03
2017-03-08T06:46:00.345Z,1017.97
2017-03-08T06:46:25.912Z,1017.99
2017-03-08T06:46:51.476Z,1018
2017-03-08T06:47:17.031Z,1018.02
2017-03-08T06:47:42.661Z,1017.99
2017-03-08T06:48:08.212Z,1018.04
2017-03-08T06:48:33.806Z,1017.97
2017-03-08T06:48:59.381Z,1018.01
2017-03-08T06:49:24.964Z,1018.03
2017-03-08T06:49:50.511Z,1018.02
2017-03-08T06:50:16.084Z,1018.03
2017-03-08T06:50:41.647Z,1018.01
2017-03-08T06:51:07.218Z,1018.06
2017-03-08T06:51:32.778Z,1018.05
2017-03-08T06:51:58.335Z,1018.02
2017-03-08T06:52:23.891Z,1018.04
2017-03-08T06:52:49.465Z,1018.01
2017-03-08T06:53:15.033Z,1017.99
2017-03-08T06:53:40.601Z,1017.98
2017-03-08T06:54:06.157Z,1017.92
2017-03-08T06:54:31.831Z,1017.92
2017-03-08T06:54:57.359Z,1017.9
2017-03-08T06:55:22.912Z,1017.89
2017-03-08T06:55:48.460Z,1017.9
2017-03-08T06:56:13.994Z,1017.9
2017-03-08T06:56:40.194Z,1017.91
2017-03-08T06:57:05.211Z,1017.87
2017-03-08T06:58:13.908Z,1017.84
2017-03-08T06:58:39.467Z,1017.86
2017-03-08T06:59:05.015Z,1017.87
2017-03-08T06:59:30.597Z,1017.89
2017-03-08T06:59:57.057Z,1017.86
2017-03-08T07:00:22.641Z,1017.89
2017-03-08T07:01:25.818Z,1017.88
2017-03-08T07:01:52.142Z,1017.89
2017-03-08T07:02:17.703Z,1017.86
2017-03-08T07:02:43.316Z,1017.86
2017-03-08T07:03:08.889Z,1017.89
2017-03-08T07:03:34.457Z,1017.87
2017-03-08T07:04:00.049Z,1017.85
2017-03-08T07:04:25.601Z,1017.88
2017-03-08T07:04:51.161Z,1017.88
2017-03-08T07:05:16.698Z,1017.93
2017-03-08T07:05:42.257Z,1017.9
2017-03-08T07:06:07.827Z,1017.89
2017-03-08T07:06:33.401Z,1017.9
2017-03-08T07:06:58.951Z,1017.87
2017-03-08T07:07:24.523Z,1017.91
2017-03-08T07:07:50.170Z,1017.93
2017-03-08T07:08:15.728Z,1017.93
2017-03-08T07:08:42.078Z,1017.91
2017-03-08T07:09:07.659Z,1017.96
2017-03-08T07:09:33.800Z,1017.96
2017-03-08T07:09:58.769Z,1017.99
2017-03-08T07:10:24.319Z,1017.99
2017-03-08T07:10:49.877Z,1017.99
2017-03-08T07:11:15.457Z,1018
2017-03-08T07:11:41.013Z,1017.99
2017-03-08T07:12:06.645Z,1017.97
2017-03-08T07:12:32.206Z,1017.99
2017-03-08T07:12:57.769Z,1018
2017-03-08T07:13:23.365Z,1017.93
2017-03-08T07:13:48.940Z,1017.98
2017-03-08T07:14:14.492Z,1018
2017-03-08T07:14:40.070Z,1017.96
2017-03-08T07:15:05.641Z,1017.98
2017-03-08T07:15:31.210Z,1017.98
2017-03-08T07:15:56.759Z,1017.93
2017-03-08T07:16:22.335Z,1017.94
2017-03-08T07:16:47.890Z,1017.93
2017-03-08T07:17:13.457Z,1017.93
2017-03-08T07:17:39.027Z,1017.91
2017-03-08T07:18:04.638Z,1017.91
2017-03-08T07:18:30.228Z,1017.92
2017-03-08T07:18:55.810Z,1017.86
2017-03-08T07:19:21.372Z,1017.93
2017-03-08T07:19:46.939Z,1017.88
2017-03-08T07:20:12.510Z,1017.85
2017-03-08T07:20:38.083Z,1017.89
2017-03-08T07:21:03.674Z,1017.83
2017-03-08T07:21:29.232Z,1017.86
2017-03-08T07:21:54.783Z,1017.85
2017-03-08T07:22:20.356Z,1017.84
2017-03-08T07:22:45.904Z,1017.82
2017-03-08T07:23:11.457Z,1017.84
2017-03-08T07:23:37.028Z,1017.76
2017-03-08T07:24:02.572Z,1017.74
2017-03-08T07:24:28.158Z,1017.79
2017-03-08T07:24:53.721Z,1017.77
2017-03-08T07:25:19.283Z,1017.76
2017-03-08T07:25:44.927Z,1017.78
2017-03-08T07:26:10.498Z,1017.81
2017-03-08T07:26:36.082Z,1017.78
2017-03-08T07:27:01.829Z,1017.79
2017-03-08T07:27:27.395Z,1017.84
2017-03-08T07:27:52.944Z,1017.78
2017-03-08T07:28:18.514Z,1017.74
2017-03-08T07:28:44.072Z,1017.76
2017-03-08T07:29:09.647Z,1017.75
2017-03-08T07:29:35.220Z,1017.77
2017-03-08T07:30:00.781Z,1017.75
2017-03-08T07:30:26.356Z,1017.75
2017-03-08T07:30:51.921Z,1017.68
2017-03-08T07:31:17.481Z,1017.68
2017-03-08T07:31:43.055Z,1017.68
2017-03-08T07:32:08.655Z,1017.66
2017-03-08T07:32:34.232Z,1017.64
2017-03-08T07:32:59.927Z,1017.63
2017-03-08T07:33:25.485Z,1017.66
2017-03-08T07:33:51.051Z,1017.64
2017-03-08T07:34:16.613Z,1017.65
2017-03-08T07:34:42.296Z,1017.68
2017-03-08T07:35:07.868Z,1017.66
2017-03-08T07:35:33.442Z,1017.7
2017-03-08T07:35:59.112Z,1017.72
2017-03-08T07:36:24.736Z,1017.69
2017-03-08T07:36:50.283Z,1017.73
2017-03-08T07:37:15.829Z,1017.76
2017-03-08T07:37:41.393Z,1017.71
2017-03-08T07:38:06.951Z,1017.72
2017-03-08T07:38:32.514Z,1017.72
2017-03-08T07:38:58.083Z,1017.68
2017-03-08T07:39:23.638Z,1017.68
2017-03-08T07:39:49.188Z,1017.59
2017-03-08T07:40:14.800Z,1017.57
2017-03-08T07:40:40.362Z,1017.6
2017-03-08T07:41:05.932Z,1017.58
2017-03-08T07:41:32.319Z,1017.54
2017-03-08T07:41:57.085Z,1017.51
2017-03-08T07:42:22.659Z,1017.57
2017-03-08T07:42:48.230Z,1017.54
2017-03-08T07:43:13.795Z,1017.5
2017-03-08T07:43:39.333Z,1017.48
2017-03-08T07:44:04.930Z,1017.49
2017-03-08T07:44:30.493Z,1017.47
2017-03-08T07:44:56.087Z,1017.46
2017-03-08T07:45:21.647Z,1017.51
2017-03-08T07:45:47.196Z,1017.49
2017-03-08T07:46:12.772Z,1017.48
2017-03-08T07:46:38.335Z,1017.51
2017-03-08T07:47:03.924Z,1017.43
2017-03-08T07:47:29.519Z,1017.4
2017-03-08T07:47:55.101Z,1017.5
2017-03-08T07:48:20.663Z,1017.43
2017-03-08T07:48:46.258Z,1017.44
2017-03-08T07:49:12.643Z,1017.4
2017-03-08T07:49:38.199Z,1017.44
2017-03-08T07:50:03.764Z,1017.39
2017-03-08T07:50:29.344Z,1017.39
2017-03-08T07:50:54.963Z,1017.39
2017-03-08T07:51:21.323Z,1017.38
2017-03-08T07:51:46.056Z,1017.37
2017-03-08T07:52:11.621Z,1017.38
2017-03-08T07:52:37.180Z,1017.36
2017-03-08T07:53:02.740Z,1017.38
2017-03-08T07:53:28.312Z,1017.34
2017-03-08T07:53:53.879Z,1017.33
2017-03-08T07:54:19.434Z,1017.32
2017-03-08T07:54:45.025Z,1017.32
2017-03-08T07:55:10.662Z,1017.3
2017-03-08T07:55:36.221Z,1017.31
2017-03-08T07:56:01.774Z,1017.32
2017-03-08T07:56:27.347Z,1017.27
2017-03-08T07:56:52.922Z,1017.25
2017-03-08T07:57:18.480Z,1017.28
2017-03-08T07:57:44.046Z,1017.25
2017-03-08T07:58:09.630Z,1017.23
2017-03-08T07:58:35.290Z,1017.3
2017-03-08T07:59:00.963Z,1017.23
2017-03-08T07:59:27.326Z,1017.25
2017-03-08T07:59:52.015Z,1017.24
2017-03-08T08:00:17.564Z,1017.22
2017-03-08T08:00:43.132Z,1017.25
2017-03-08T08:01:08.698Z,1017.23
2017-03-08T08:01:34.664Z,1017.23
2017-03-08T08:02:00.248Z,1017.24
2017-03-08T08:02:25.813Z,1017.23
2017-03-08T08:02:51.371Z,1017.22
2017-03-08T08:03:16.942Z,1017.2
2017-03-08T08:03:42.490Z,1017.23
2017-03-08T08:04:08.065Z,1017.19
2017-03-08T08:04:34.401Z,1017.22
2017-03-08T08:04:59.972Z,1017.2
2017-03-08T08:05:25.540Z,1017.22
2017-03-08T08:05:51.107Z,1017.24
2017-03-08T08:06:16.661Z,1017.24
2017-03-08T08:06:42.231Z,1017.22
2017-03-08T08:07:07.825Z,1017.27
2017-03-08T08:07:33.441Z,1017.24
2017-03-08T08:07:59.133Z,1017.25
2017-03-08T08:08:24.715Z,1017.25
2017-03-08T08:08:50.297Z,1017.2
2017-03-08T08:09:15.856Z,1017.26
2017-03-08T08:09:41.432Z,1017.22
2017-03-08T08:10:06.985Z,1017.24
2017-03-08T08:10:32.532Z,1017.23
2017-03-08T08:10:58.106Z,1017.21
2017-03-08T08:11:23.685Z,1017.23
2017-03-08T08:11:49.222Z,1017.21
2017-03-08T08:12:14.801Z,1017.2
2017-03-08T08:12:40.358Z,1017.19
2017-03-08T08:13:05.985Z,1017.15
2017-03-08T08:13:31.552Z,1017.13
2017-03-08T08:13:57.104Z,1017.12
2017-03-08T08:14:22.670Z,1017.05
2017-03-08T08:14:48.335Z,1017.04
2017-03-08T08:15:13.892Z,1016.96
2017-03-08T08:15:39.476Z,1016.89
2017-03-08T08:16:05.747Z,1016.95
2017-03-08T08:16:31.300Z,1016.9
2017-03-08T08:16:56.872Z,1016.88
2017-03-08T08:17:22.461Z,1016.86
2017-03-08T08:17:48.012Z,1016.82
2017-03-08T08:18:13.572Z,1016.81
2017-03-08T08:18:39.152Z,1016.84
2017-03-08T08:19:04.731Z,1016.81
2017-03-08T08:19:30.296Z,1016.78
2017-03-08T08:19:55.862Z,1016.83
2017-03-08T08:20:21.418Z,1016.75
2017-03-08T08:20:47.018Z,1016.71
2017-03-08T08:21:12.609Z,1016.74
2017-03-08T08:21:38.179Z,1016.68
2017-03-08T08:22:04.532Z,1016.67
2017-03-08T08:22:30.629Z,1016.66
2017-03-08T08:22:56.189Z,1016.7
2017-03-08T08:23:21.764Z,1016.69
2017-03-08T08:23:47.344Z,1016.66
2017-03-08T08:24:12.902Z,1016.63
2017-03-08T08:24:38.462Z,1016.64
2017-03-08T08:25:04.015Z,1016.61
2017-03-08T08:25:29.622Z,1016.64
2017-03-08T08:25:55.264Z,1016.54
2017-03-08T08:26:20.833Z,1016.56
2017-03-08T08:26:46.377Z,1016.57
2017-03-08T08:27:11.939Z,1016.56
2017-03-08T08:27:37.519Z,1016.54
2017-03-08T08:28:03.078Z,1016.53
2017-03-08T08:28:28.663Z,1016.58
2017-03-08T08:28:54.238Z,1016.55
2017-03-08T08:29:19.822Z,1016.55
2017-03-08T08:29:45.381Z,1016.57
2017-03-08T08:30:11.938Z,1016.54
2017-03-08T08:30:37.524Z,1016.49
2017-03-08T08:31:03.091Z,1016.45
2017-03-08T08:31:28.645Z,1016.39
2017-03-08T08:31:54.191Z,1016.38
2017-03-08T08:32:19.741Z,1016.35
2017-03-08T08:32:45.333Z,1016.31
2017-03-08T08:33:10.939Z,1016.33
2017-03-08T08:33:36.507Z,1016.23
2017-03-08T08:34:02.063Z,1016.28
2017-03-08T08:34:27.670Z,1016.33
2017-03-08T08:34:53.232Z,1016.3
2017-03-08T08:35:18.808Z,1016.29
2017-03-08T08:35:44.363Z,1016.28
2017-03-08T08:36:09.957Z,1016.29
2017-03-08T08:36:35.546Z,1016.29
2017-03-08T08:37:01.111Z,1016.31
2017-03-08T08:37:26.682Z,1016.31
2017-03-08T08:37:52.333Z,1016.29
2017-03-08T08:38:17.880Z,1016.22
2017-03-08T08:38:43.445Z,1016.24
2017-03-08T08:39:09.109Z,1016.29
2017-03-08T08:39:34.678Z,1016.27
2017-03-08T08:40:00.239Z,1016.29
2017-03-08T08:40:25.854Z,1016.27
2017-03-08T08:40:51.443Z,1016.32
2017-03-08T08:41:16.985Z,1016.33
2017-03-08T08:41:42.580Z,1016.32
2017-03-08T08:42:08.128Z,1016.38
2017-03-08T08:42:33.678Z,1016.34
2017-03-08T08:42:59.236Z,1016.34
2017-03-08T08:43:24.783Z,1016.32
2017-03-08T08:43:50.381Z,1016.29
2017-03-08T08:44:15.974Z,1016.34
2017-03-08T08:44:42.347Z,1016.35
2017-03-08T08:45:07.111Z,1016.31
2017-03-08T08:45:32.703Z,1016.32
2017-03-08T08:45:58.273Z,1016.34
2017-03-08T08:46:23.826Z,1016.32
2017-03-08T08:46:49.502Z,1016.4
2017-03-08T08:47:15.058Z,1016.41
2017-03-08T08:47:40.612Z,1016.37
2017-03-08T08:48:06.202Z,1016.45
2017-03-08T08:48:31.755Z,1016.47
2017-03-08T08:48:57.332Z,1016.4
2017-03-08T08:49:22.901Z,1016.49
2017-03-08T08:49:48.458Z,1016.48
2017-03-08T08:50:14.031Z,1016.47
2017-03-08T08:50:39.598Z,1016.48
2017-03-08T08:51:05.148Z,1016.43
2017-03-08T08:51:30.735Z,1016.42
2017-03-08T08:51:56.285Z,1016.4
2017-03-08T08:52:22.842Z,1016.4
2017-03-08T08:52:47.411Z,1016.42
2017-03-08T08:53:13.000Z,1016.39
2017-03-08T08:53:38.550Z,1016.5
2017-03-08T08:54:04.113Z,1016.46
2017-03-08T08:55:02.460Z,1016.45
2017-03-08T08:55:28.111Z,1016.44
2017-03-08T08:55:54.347Z,1016.4
2017-03-08T08:56:19.931Z,1016.38
2017-03-08T08:56:45.491Z,1016.32
2017-03-08T08:57:11.660Z,1016.31
2017-03-08T08:57:36.608Z,1016.28
2017-03-08T08:58:02.169Z,1016.24
2017-03-08T08:58:28.685Z,1016.22
2017-03-08T08:58:54.366Z,1016.21
2017-03-08T08:59:19.930Z,1016.05
2017-03-08T08:59:45.490Z,1016.11
2017-03-08T09:00:11.067Z,1016.03
2017-03-08T09:00:37.461Z,1016.03
2017-03-08T09:01:03.049Z,1015.97
2017-03-08T09:01:28.650Z,1015.93
2017-03-08T09:01:54.194Z,1015.96
2017-03-08T09:02:19.755Z,1015.96
2017-03-08T09:02:45.328Z,1015.9
2017-03-08T09:03:10.878Z,1015.89
2017-03-08T09:03:36.431Z,1015.88
2017-03-08T09:04:02.001Z,1015.84
2017-03-08T09:04:27.581Z,1015.84
2017-03-08T09:04:53.653Z,1015.82
2017-03-08T09:05:18.690Z,1015.84
2017-03-08T09:05:44.248Z,1015.82
2017-03-08T09:06:09.820Z,1015.74
2017-03-08T09:06:35.453Z,1015.72
2017-03-08T09:07:01.024Z,1015.71
2017-03-08T09:07:26.581Z,1015.76
2017-03-08T09:07:52.985Z,1015.78
2017-03-08T09:08:18.557Z,1015.77
2017-03-08T09:08:44.115Z,1015.78
2017-03-08T09:09:09.665Z,1015.79
2017-03-08T09:09:35.255Z,1015.77
2017-03-08T09:10:00.779Z,1015.78
2017-03-08T09:10:26.400Z,1015.77
2017-03-08T09:10:51.962Z,1015.84
2017-03-08T09:11:17.559Z,1015.82
2017-03-08T09:11:43.142Z,1015.79
2017-03-08T09:12:08.759Z,1015.83
2017-03-08T09:13:17.310Z,1015.82
2017-03-08T09:14:36.322Z,1015.88
2017-03-08T09:15:01.381Z,1015.87
2017-03-08T09:15:26.937Z,1015.86
2017-03-08T09:15:53.223Z,1015.89
2017-03-08T09:16:18.776Z,1015.93
2017-03-08T09:16:44.343Z,1015.87
2017-03-08T09:17:09.881Z,1015.91
2017-03-08T09:17:35.462Z,1015.88
2017-03-08T09:18:01.015Z,1015.91
2017-03-08T09:18:26.647Z,1015.85
2017-03-08T09:18:52.215Z,1015.88
2017-03-08T09:19:17.768Z,1015.84
2017-03-08T09:19:43.334Z,1015.85